sensor_id;sensor_type;location;lat;lon;timestamp;P1;durP1;ratioP1;P2;durP2;ratioP2
9076;SDS011;4574;51.072;17.174;2023-03-23T00:02:24;25.53;;;15.30;;
9076;SDS011;4574;51.072;17.174;2023-03-23T00:04:53;23.20;;;13.67;;
9076;SDS011;4574;51.072;17.174;2023-03-23T00:07:23;22.20;;;14.37;;
9076;SDS011;4574;51.072;17.174;2023-03-23T00:09:53;24.03;;;14.57;;
9076;SDS011;4574;51.072;17.174;2023-03-23T00:12:22;23.50;;;13.53;;
9076;SDS011;4574;51.072;17.174;2023-03-23T00:14:54;19.73;;;12.83;;
9076;SDS011;4574;51.072;17.174;2023-03-23T00:17:22;21.40;;;13.60;;
9076;SDS011;4574;51.072;17.174;2023-03-23T00:19:50;19.17;;;12.80;;
9076;SDS011;4574;51.072;17.174;2023-03-23T00:22:17;24.37;;;14.57;;
9076;SDS011;4574;51.072;17.174;2023-03-23T00:24:51;20.77;;;13.20;;
9076;SDS011;4574;51.072;17.174;2023-03-23T00:27:19;25.23;;;14.70;;
9076;SDS011;4574;51.072;17.174;2023-03-23T00:29:48;20.53;;;12.83;;
9076;SDS011;4574;51.072;17.174;2023-03-23T00:32:18;18.93;;;13.03;;
9076;SDS011;4574;51.072;17.174;2023-03-23T00:34:52;23.67;;;14.43;;
9076;SDS011;4574;51.072;17.174;2023-03-23T00:37:20;23.90;;;13.80;;
9076;SDS011;4574;51.072;17.174;2023-03-23T00:39:48;21.37;;;13.10;;
9076;SDS011;4574;51.072;17.174;2023-03-23T00:42:18;24.37;;;13.73;;
9076;SDS011;4574;51.072;17.174;2023-03-23T00:44:47;20.33;;;13.50;;
9076;SDS011;4574;51.072;17.174;2023-03-23T00:47:15;23.73;;;12.97;;
9076;SDS011;4574;51.072;17.174;2023-03-23T00:49:42;24.60;;;13.60;;
9076;SDS011;4574;51.072;17.174;2023-03-23T00:52:10;19.13;;;12.60;;
9076;SDS011;4574;51.072;17.174;2023-03-23T00:54:37;19.87;;;12.53;;
9076;SDS011;4574;51.072;17.174;2023-03-23T00:57:05;23.20;;;13.53;;
9076;SDS011;4574;51.072;17.174;2023-03-23T00:59:34;20.67;;;12.97;;
9076;SDS011;4574;51.072;17.174;2023-03-23T01:02:01;22.17;;;12.60;;
9076;SDS011;4574;51.072;17.174;2023-03-23T01:04:28;25.20;;;13.43;;
9076;SDS011;4574;51.072;17.174;2023-03-23T01:06:56;20.93;;;13.33;;
9076;SDS011;4574;51.072;17.174;2023-03-23T01:09:26;24.30;;;13.03;;
9076;SDS011;4574;51.072;17.174;2023-03-23T01:11:53;21.73;;;13.10;;
9076;SDS011;4574;51.072;17.174;2023-03-23T01:14:22;23.30;;;12.70;;
9076;SDS011;4574;51.072;17.174;2023-03-23T01:16:52;21.00;;;12.70;;
9076;SDS011;4574;51.072;17.174;2023-03-23T01:19:20;18.30;;;12.40;;
9076;SDS011;4574;51.072;17.174;2023-03-23T01:21:47;19.10;;;11.97;;
9076;SDS011;4574;51.072;17.174;2023-03-23T01:24:14;19.13;;;12.73;;
9076;SDS011;4574;51.072;17.174;2023-03-23T01:26:42;18.53;;;12.53;;
9076;SDS011;4574;51.072;17.174;2023-03-23T01:29:09;19.23;;;11.80;;
9076;SDS011;4574;51.072;17.174;2023-03-23T01:31:36;18.87;;;11.77;;
9076;SDS011;4574;51.072;17.174;2023-03-23T01:34:05;18.37;;;11.87;;
9076;SDS011;4574;51.072;17.174;2023-03-23T01:36:33;19.47;;;11.53;;
9076;SDS011;4574;51.072;17.174;2023-03-23T01:39:01;16.30;;;11.07;;
9076;SDS011;4574;51.072;17.174;2023-03-23T01:41:30;15.60;;;10.50;;
9076;SDS011;4574;51.072;17.174;2023-03-23T01:44:00;19.43;;;10.97;;
9076;SDS011;4574;51.072;17.174;2023-03-23T01:46:30;18.20;;;11.20;;
9076;SDS011;4574;51.072;17.174;2023-03-23T01:49:00;17.17;;;10.57;;
9076;SDS011;4574;51.072;17.174;2023-03-23T01:51:35;21.33;;;12.40;;
9076;SDS011;4574;51.072;17.174;2023-03-23T01:54:09;13.53;;;9.77;;
9076;SDS011;4574;51.072;17.174;2023-03-23T01:56:40;14.77;;;9.33;;
9076;SDS011;4574;51.072;17.174;2023-03-23T01:59:12;12.80;;;8.93;;
9076;SDS011;4574;51.072;17.174;2023-03-23T02:01:40;14.30;;;8.20;;
9076;SDS011;4574;51.072;17.174;2023-03-23T02:04:13;12.27;;;8.97;;
9076;SDS011;4574;51.072;17.174;2023-03-23T02:06:43;13.87;;;8.80;;
9076;SDS011;4574;51.072;17.174;2023-03-23T02:09:11;12.00;;;7.83;;
9076;SDS011;4574;51.072;17.174;2023-03-23T02:11:42;13.53;;;9.00;;
9076;SDS011;4574;51.072;17.174;2023-03-23T02:14:10;11.17;;;7.83;;
9076;SDS011;4574;51.072;17.174;2023-03-23T02:16:40;13.10;;;8.77;;
9076;SDS011;4574;51.072;17.174;2023-03-23T02:19:21;12.43;;;8.47;;
9076;SDS011;4574;51.072;17.174;2023-03-23T02:22:34;14.33;;;8.03;;
9076;SDS011;4574;51.072;17.174;2023-03-23T02:25:40;14.33;;;7.37;;
9076;SDS011;4574;51.072;17.174;2023-03-23T02:28:25;12.37;;;7.03;;
9076;SDS011;4574;51.072;17.174;2023-03-23T02:34:13;10.50;;;8.20;;
9076;SDS011;4574;51.072;17.174;2023-03-23T02:36:45;13.00;;;7.33;;
9076;SDS011;4574;51.072;17.174;2023-03-23T02:39:18;12.17;;;7.70;;
9076;SDS011;4574;51.072;17.174;2023-03-23T02:41:50;11.43;;;7.60;;
9076;SDS011;4574;51.072;17.174;2023-03-23T02:44:20;10.70;;;7.43;;
9076;SDS011;4574;51.072;17.174;2023-03-23T02:46:50;9.83;;;7.17;;
9076;SDS011;4574;51.072;17.174;2023-03-23T02:49:21;11.77;;;7.13;;
9076;SDS011;4574;51.072;17.174;2023-03-23T02:51:51;12.47;;;6.80;;
9076;SDS011;4574;51.072;17.174;2023-03-23T02:54:21;10.07;;;7.20;;
9076;SDS011;4574;51.072;17.174;2023-03-23T02:56:51;11.40;;;7.23;;
9076;SDS011;4574;51.072;17.174;2023-03-23T02:59:18;14.07;;;7.77;;
9076;SDS011;4574;51.072;17.174;2023-03-23T03:01:48;15.00;;;9.90;;
9076;SDS011;4574;51.072;17.174;2023-03-23T03:04:23;14.07;;;10.63;;
9076;SDS011;4574;51.072;17.174;2023-03-23T03:06:57;14.43;;;11.20;;
9076;SDS011;4574;51.072;17.174;2023-03-23T03:09:38;21.23;;;15.03;;
9076;SDS011;4574;51.072;17.174;2023-03-23T03:12:15;22.43;;;17.50;;
9076;SDS011;4574;51.072;17.174;2023-03-23T03:14:48;21.73;;;16.47;;
9076;SDS011;4574;51.072;17.174;2023-03-23T03:17:24;23.00;;;17.20;;
9076;SDS011;4574;51.072;17.174;2023-03-23T03:19:54;20.97;;;15.70;;
9076;SDS011;4574;51.072;17.174;2023-03-23T03:22:25;20.40;;;14.83;;
9076;SDS011;4574;51.072;17.174;2023-03-23T03:24:55;18.30;;;13.93;;
9076;SDS011;4574;51.072;17.174;2023-03-23T03:27:24;19.37;;;13.70;;
9076;SDS011;4574;51.072;17.174;2023-03-23T03:29:53;15.93;;;12.00;;
9076;SDS011;4574;51.072;17.174;2023-03-23T03:32:25;15.67;;;10.60;;
9076;SDS011;4574;51.072;17.174;2023-03-23T03:35:01;15.00;;;9.60;;
9076;SDS011;4574;51.072;17.174;2023-03-23T03:37:32;12.13;;;9.90;;
9076;SDS011;4574;51.072;17.174;2023-03-23T03:40:04;11.00;;;8.87;;
9076;SDS011;4574;51.072;17.174;2023-03-23T03:42:37;10.50;;;8.20;;
9076;SDS011;4574;51.072;17.174;2023-03-23T03:45:05;12.00;;;7.67;;
9076;SDS011;4574;51.072;17.174;2023-03-23T03:47:34;9.03;;;7.40;;
9076;SDS011;4574;51.072;17.174;2023-03-23T03:50:04;8.63;;;6.73;;
9076;SDS011;4574;51.072;17.174;2023-03-23T03:52:32;9.20;;;6.37;;
9076;SDS011;4574;51.072;17.174;2023-03-23T03:54:59;8.73;;;6.57;;
9076;SDS011;4574;51.072;17.174;2023-03-23T03:57:28;9.23;;;6.40;;
9076;SDS011;4574;51.072;17.174;2023-03-23T03:59:59;10.33;;;6.53;;
9076;SDS011;4574;51.072;17.174;2023-03-23T04:02:36;9.80;;;6.17;;
9076;SDS011;4574;51.072;17.174;2023-03-23T04:05:05;9.00;;;5.40;;
9076;SDS011;4574;51.072;17.174;2023-03-23T04:07:34;6.80;;;5.77;;
9076;SDS011;4574;51.072;17.174;2023-03-23T04:10:05;7.20;;;5.90;;
9076;SDS011;4574;51.072;17.174;2023-03-23T04:12:33;8.13;;;5.13;;
9076;SDS011;4574;51.072;17.174;2023-03-23T04:15:01;7.07;;;4.83;;
9076;SDS011;4574;51.072;17.174;2023-03-23T04:17:30;8.73;;;5.70;;
9076;SDS011;4574;51.072;17.174;2023-03-23T04:19:57;7.80;;;5.80;;
9076;SDS011;4574;51.072;17.174;2023-03-23T04:22:27;6.50;;;5.07;;
9076;SDS011;4574;51.072;17.174;2023-03-23T04:24:57;9.17;;;6.17;;
9076;SDS011;4574;51.072;17.174;2023-03-23T04:27:25;6.53;;;5.27;;
9076;SDS011;4574;51.072;17.174;2023-03-23T04:29:54;8.87;;;6.00;;
9076;SDS011;4574;51.072;17.174;2023-03-23T04:32:23;9.17;;;6.53;;
9076;SDS011;4574;51.072;17.174;2023-03-23T04:34:54;11.40;;;7.50;;
9076;SDS011;4574;51.072;17.174;2023-03-23T04:37:23;8.50;;;6.27;;
9076;SDS011;4574;51.072;17.174;2023-03-23T04:39:55;10.73;;;6.43;;
9076;SDS011;4574;51.072;17.174;2023-03-23T04:42:27;14.40;;;8.07;;
9076;SDS011;4574;51.072;17.174;2023-03-23T04:44:55;16.80;;;8.13;;
9076;SDS011;4574;51.072;17.174;2023-03-23T04:47:23;17.93;;;8.60;;
9076;SDS011;4574;51.072;17.174;2023-03-23T04:49:54;11.87;;;6.30;;
9076;SDS011;4574;51.072;17.174;2023-03-23T04:52:22;9.53;;;6.00;;
9076;SDS011;4574;51.072;17.174;2023-03-23T04:54:51;12.20;;;6.10;;
9076;SDS011;4574;51.072;17.174;2023-03-23T04:57:20;9.87;;;6.00;;
9076;SDS011;4574;51.072;17.174;2023-03-23T04:59:48;10.73;;;5.47;;
9076;SDS011;4574;51.072;17.174;2023-03-23T05:02:16;12.53;;;5.53;;
9076;SDS011;4574;51.072;17.174;2023-03-23T05:04:44;7.17;;;4.90;;
9076;SDS011;4574;51.072;17.174;2023-03-23T05:07:11;8.87;;;5.23;;
9076;SDS011;4574;51.072;17.174;2023-03-23T05:09:38;7.77;;;4.83;;
9076;SDS011;4574;51.072;17.174;2023-03-23T05:12:07;11.03;;;5.80;;
9076;SDS011;4574;51.072;17.174;2023-03-23T05:14:39;8.63;;;4.70;;
9076;SDS011;4574;51.072;17.174;2023-03-23T05:17:07;10.07;;;5.23;;
9076;SDS011;4574;51.072;17.174;2023-03-23T05:19:34;10.53;;;4.87;;
9076;SDS011;4574;51.072;17.174;2023-03-23T05:22:03;6.60;;;4.70;;
9076;SDS011;4574;51.072;17.174;2023-03-23T05:24:30;8.13;;;4.83;;
9076;SDS011;4574;51.072;17.174;2023-03-23T05:27:01;6.77;;;5.07;;
9076;SDS011;4574;51.072;17.174;2023-03-23T05:29:28;8.73;;;4.60;;
9076;SDS011;4574;51.072;17.174;2023-03-23T05:31:58;7.10;;;4.13;;
9076;SDS011;4574;51.072;17.174;2023-03-23T05:34:26;11.13;;;4.53;;
9076;SDS011;4574;51.072;17.174;2023-03-23T05:36:54;7.90;;;4.27;;
9076;SDS011;4574;51.072;17.174;2023-03-23T05:39:22;6.07;;;4.50;;
9076;SDS011;4574;51.072;17.174;2023-03-23T05:41:50;7.00;;;4.13;;
9076;SDS011;4574;51.072;17.174;2023-03-23T05:44:18;5.87;;;4.23;;
9076;SDS011;4574;51.072;17.174;2023-03-23T05:46:46;7.87;;;4.13;;
9076;SDS011;4574;51.072;17.174;2023-03-23T05:49:15;6.87;;;4.33;;
9076;SDS011;4574;51.072;17.174;2023-03-23T05:51:43;5.23;;;3.80;;
9076;SDS011;4574;51.072;17.174;2023-03-23T05:54:11;6.83;;;3.73;;
9076;SDS011;4574;51.072;17.174;2023-03-23T05:56:39;5.50;;;4.00;;
9076;SDS011;4574;51.072;17.174;2023-03-23T05:59:07;4.90;;;3.70;;
9076;SDS011;4574;51.072;17.174;2023-03-23T06:01:35;6.43;;;3.40;;
9076;SDS011;4574;51.072;17.174;2023-03-23T06:04:02;7.10;;;3.20;;
9076;SDS011;4574;51.072;17.174;2023-03-23T06:06:31;4.50;;;3.33;;
9076;SDS011;4574;51.072;17.174;2023-03-23T06:08:59;4.07;;;3.37;;
9076;SDS011;4574;51.072;17.174;2023-03-23T06:11:26;4.10;;;3.40;;
9076;SDS011;4574;51.072;17.174;2023-03-23T06:13:53;9.40;;;3.00;;
9076;SDS011;4574;51.072;17.174;2023-03-23T06:16:20;6.03;;;3.57;;
9076;SDS011;4574;51.072;17.174;2023-03-23T06:18:48;4.63;;;2.93;;
9076;SDS011;4574;51.072;17.174;2023-03-23T06:21:15;4.57;;;3.10;;
9076;SDS011;4574;51.072;17.174;2023-03-23T06:23:46;3.97;;;3.10;;
9076;SDS011;4574;51.072;17.174;2023-03-23T06:26:13;3.60;;;2.90;;
9076;SDS011;4574;51.072;17.174;2023-03-23T06:28:43;3.60;;;3.07;;
9076;SDS011;4574;51.072;17.174;2023-03-23T06:31:10;4.43;;;3.50;;
9076;SDS011;4574;51.072;17.174;2023-03-23T06:33:39;4.17;;;3.10;;
9076;SDS011;4574;51.072;17.174;2023-03-23T06:36:07;5.83;;;3.40;;
9076;SDS011;4574;51.072;17.174;2023-03-23T06:38:37;5.90;;;3.60;;
9076;SDS011;4574;51.072;17.174;2023-03-23T06:41:06;5.57;;;3.30;;
9076;SDS011;4574;51.072;17.174;2023-03-23T06:43:34;3.90;;;2.80;;
9076;SDS011;4574;51.072;17.174;2023-03-23T06:46:04;3.90;;;3.40;;
9076;SDS011;4574;51.072;17.174;2023-03-23T06:48:32;5.10;;;3.47;;
9076;SDS011;4574;51.072;17.174;2023-03-23T06:50:59;3.90;;;3.37;;
9076;SDS011;4574;51.072;17.174;2023-03-23T06:53:27;5.53;;;2.93;;
9076;SDS011;4574;51.072;17.174;2023-03-23T06:55:55;8.37;;;3.33;;
9076;SDS011;4574;51.072;17.174;2023-03-23T06:58:24;7.50;;;3.27;;
9076;SDS011;4574;51.072;17.174;2023-03-23T07:00:53;4.67;;;3.27;;
9076;SDS011;4574;51.072;17.174;2023-03-23T07:03:22;3.80;;;3.10;;
9076;SDS011;4574;51.072;17.174;2023-03-23T07:05:49;4.90;;;2.93;;
9076;SDS011;4574;51.072;17.174;2023-03-23T07:08:16;3.67;;;3.03;;
9076;SDS011;4574;51.072;17.174;2023-03-23T07:10:44;4.40;;;2.90;;
9076;SDS011;4574;51.072;17.174;2023-03-23T07:13:11;6.50;;;3.00;;
9076;SDS011;4574;51.072;17.174;2023-03-23T07:15:39;3.00;;;2.70;;
9076;SDS011;4574;51.072;17.174;2023-03-23T07:18:07;4.53;;;3.13;;
9076;SDS011;4574;51.072;17.174;2023-03-23T07:20:34;5.03;;;3.67;;
9076;SDS011;4574;51.072;17.174;2023-03-23T07:23:01;3.37;;;2.83;;
9076;SDS011;4574;51.072;17.174;2023-03-23T07:25:30;5.37;;;3.90;;
9076;SDS011;4574;51.072;17.174;2023-03-23T07:27:58;4.23;;;2.77;;
9076;SDS011;4574;51.072;17.174;2023-03-23T07:30:25;4.07;;;3.40;;
9076;SDS011;4574;51.072;17.174;2023-03-23T07:32:56;4.77;;;3.40;;
9076;SDS011;4574;51.072;17.174;2023-03-23T07:35:23;6.93;;;3.90;;
9076;SDS011;4574;51.072;17.174;2023-03-23T07:37:51;6.37;;;3.37;;
9076;SDS011;4574;51.072;17.174;2023-03-23T07:40:20;4.50;;;3.57;;
9076;SDS011;4574;51.072;17.174;2023-03-23T07:42:51;6.87;;;3.80;;
9076;SDS011;4574;51.072;17.174;2023-03-23T07:45:19;5.93;;;4.13;;
9076;SDS011;4574;51.072;17.174;2023-03-23T07:47:47;5.60;;;3.77;;
9076;SDS011;4574;51.072;17.174;2023-03-23T07:50:16;5.57;;;3.97;;
9076;SDS011;4574;51.072;17.174;2023-03-23T07:52:46;5.30;;;3.90;;
9076;SDS011;4574;51.072;17.174;2023-03-23T07:55:14;6.30;;;4.00;;
9076;SDS011;4574;51.072;17.174;2023-03-23T07:57:43;6.30;;;4.30;;
9076;SDS011;4574;51.072;17.174;2023-03-23T08:00:11;7.97;;;4.37;;
9076;SDS011;4574;51.072;17.174;2023-03-23T08:02:44;5.53;;;3.87;;
9076;SDS011;4574;51.072;17.174;2023-03-23T08:05:12;6.80;;;4.10;;
9076;SDS011;4574;51.072;17.174;2023-03-23T08:07:41;6.87;;;4.33;;
9076;SDS011;4574;51.072;17.174;2023-03-23T08:10:11;5.37;;;4.07;;
9076;SDS011;4574;51.072;17.174;2023-03-23T08:12:40;6.60;;;4.47;;
9076;SDS011;4574;51.072;17.174;2023-03-23T08:15:09;5.93;;;4.40;;
9076;SDS011;4574;51.072;17.174;2023-03-23T08:17:39;5.77;;;4.00;;
9076;SDS011;4574;51.072;17.174;2023-03-23T08:20:08;5.77;;;4.00;;
9076;SDS011;4574;51.072;17.174;2023-03-23T08:22:38;5.83;;;4.50;;
9076;SDS011;4574;51.072;17.174;2023-03-23T08:25:10;9.07;;;4.50;;
9076;SDS011;4574;51.072;17.174;2023-03-23T08:27:39;10.80;;;4.00;;
9076;SDS011;4574;51.072;17.174;2023-03-23T08:30:09;6.70;;;3.87;;
9076;SDS011;4574;51.072;17.174;2023-03-23T08:32:39;6.13;;;4.00;;
9076;SDS011;4574;51.072;17.174;2023-03-23T08:35:06;6.13;;;3.90;;
9076;SDS011;4574;51.072;17.174;2023-03-23T08:37:34;7.00;;;4.10;;
9076;SDS011;4574;51.072;17.174;2023-03-23T08:40:02;5.00;;;3.70;;
9076;SDS011;4574;51.072;17.174;2023-03-23T08:42:36;6.10;;;4.27;;
9076;SDS011;4574;51.072;17.174;2023-03-23T08:45:04;4.40;;;3.40;;
9076;SDS011;4574;51.072;17.174;2023-03-23T08:47:34;5.53;;;3.47;;
9076;SDS011;4574;51.072;17.174;2023-03-23T08:50:02;5.53;;;3.37;;
9076;SDS011;4574;51.072;17.174;2023-03-23T08:52:31;3.80;;;3.20;;
9076;SDS011;4574;51.072;17.174;2023-03-23T08:54:58;8.23;;;4.23;;
9076;SDS011;4574;51.072;17.174;2023-03-23T08:57:26;5.67;;;3.63;;
9076;SDS011;4574;51.072;17.174;2023-03-23T08:59:56;4.63;;;3.40;;
9076;SDS011;4574;51.072;17.174;2023-03-23T09:02:25;4.03;;;2.90;;
9076;SDS011;4574;51.072;17.174;2023-03-23T09:04:53;5.30;;;3.43;;
9076;SDS011;4574;51.072;17.174;2023-03-23T09:07:20;3.30;;;2.50;;
9076;SDS011;4574;51.072;17.174;2023-03-23T09:09:49;2.23;;;2.03;;
9076;SDS011;4574;51.072;17.174;2023-03-23T09:12:16;3.20;;;1.93;;
9076;SDS011;4574;51.072;17.174;2023-03-23T09:14:44;5.03;;;1.97;;
9076;SDS011;4574;51.072;17.174;2023-03-23T09:17:13;3.97;;;2.20;;
9076;SDS011;4574;51.072;17.174;2023-03-23T09:19:40;3.97;;;2.10;;
9076;SDS011;4574;51.072;17.174;2023-03-23T09:22:08;3.30;;;1.97;;
9076;SDS011;4574;51.072;17.174;2023-03-23T09:24:35;3.10;;;1.93;;
9076;SDS011;4574;51.072;17.174;2023-03-23T09:27:02;3.23;;;2.10;;
9076;SDS011;4574;51.072;17.174;2023-03-23T09:29:30;1.80;;;1.70;;
9076;SDS011;4574;51.072;17.174;2023-03-23T09:31:57;2.40;;;2.10;;
9076;SDS011;4574;51.072;17.174;2023-03-23T09:34:26;2.73;;;2.00;;
9076;SDS011;4574;51.072;17.174;2023-03-23T09:36:54;4.50;;;2.07;;
9076;SDS011;4574;51.072;17.174;2023-03-23T09:39:21;2.27;;;1.77;;
9076;SDS011;4574;51.072;17.174;2023-03-23T09:41:54;3.73;;;1.67;;
9076;SDS011;4574;51.072;17.174;2023-03-23T09:44:34;2.90;;;1.60;;
9076;SDS011;4574;51.072;17.174;2023-03-23T09:47:10;2.17;;;1.50;;
9076;SDS011;4574;51.072;17.174;2023-03-23T09:49:50;2.50;;;1.73;;
9076;SDS011;4574;51.072;17.174;2023-03-23T09:52:21;7.63;;;2.20;;
9076;SDS011;4574;51.072;17.174;2023-03-23T09:54:50;2.10;;;1.90;;
9076;SDS011;4574;51.072;17.174;2023-03-23T09:57:22;2.93;;;1.73;;
9076;SDS011;4574;51.072;17.174;2023-03-23T09:59:56;3.77;;;2.00;;
9076;SDS011;4574;51.072;17.174;2023-03-23T10:02:31;4.93;;;2.00;;
9076;SDS011;4574;51.072;17.174;2023-03-23T10:05:14;2.20;;;1.60;;
9076;SDS011;4574;51.072;17.174;2023-03-23T10:07:50;3.60;;;1.57;;
9076;SDS011;4574;51.072;17.174;2023-03-23T10:10:17;4.37;;;1.90;;
9076;SDS011;4574;51.072;17.174;2023-03-23T10:12:48;2.27;;;1.83;;
9076;SDS011;4574;51.072;17.174;2023-03-23T10:15:23;2.80;;;1.50;;
9076;SDS011;4574;51.072;17.174;2023-03-23T10:17:56;3.30;;;1.70;;
9076;SDS011;4574;51.072;17.174;2023-03-23T10:20:32;4.63;;;1.70;;
9076;SDS011;4574;51.072;17.174;2023-03-23T10:26:25;3.60;;;1.60;;
9076;SDS011;4574;51.072;17.174;2023-03-23T10:29:08;2.67;;;2.43;;
9076;SDS011;4574;51.072;17.174;2023-03-23T10:31:43;1.80;;;1.60;;
9076;SDS011;4574;51.072;17.174;2023-03-23T10:34:13;2.57;;;1.60;;
9076;SDS011;4574;51.072;17.174;2023-03-23T10:36:52;1.87;;;1.77;;
9076;SDS011;4574;51.072;17.174;2023-03-23T10:39:27;2.50;;;1.43;;
9076;SDS011;4574;51.072;17.174;2023-03-23T10:41:59;6.27;;;2.27;;
9076;SDS011;4574;51.072;17.174;2023-03-23T10:44:32;2.93;;;1.60;;
9076;SDS011;4574;51.072;17.174;2023-03-23T10:47:01;2.10;;;1.30;;
9076;SDS011;4574;51.072;17.174;2023-03-23T10:49:32;4.60;;;1.77;;
9076;SDS011;4574;51.072;17.174;2023-03-23T10:52:06;4.37;;;1.80;;
9076;SDS011;4574;51.072;17.174;2023-03-23T10:54:46;6.40;;;1.70;;
9076;SDS011;4574;51.072;17.174;2023-03-23T10:57:22;1.50;;;1.17;;
9076;SDS011;4574;51.072;17.174;2023-03-23T10:59:50;1.47;;;1.10;;
9076;SDS011;4574;51.072;17.174;2023-03-23T11:02:18;1.63;;;1.10;;
9076;SDS011;4574;51.072;17.174;2023-03-23T11:04:57;0.87;;;0.87;;
9076;SDS011;4574;51.072;17.174;2023-03-23T11:07:33;2.73;;;1.00;;
9076;SDS011;4574;51.072;17.174;2023-03-23T11:10:07;1.40;;;1.20;;
9076;SDS011;4574;51.072;17.174;2023-03-23T11:12:44;3.80;;;1.00;;
9076;SDS011;4574;51.072;17.174;2023-03-23T11:18:01;3.30;;;1.10;;
9076;SDS011;4574;51.072;17.174;2023-03-23T11:20:32;1.20;;;1.10;;
9076;SDS011;4574;51.072;17.174;2023-03-23T11:23:09;5.03;;;1.30;;
9076;SDS011;4574;51.072;17.174;2023-03-23T11:25:56;1.10;;;1.00;;
9076;SDS011;4574;51.072;17.174;2023-03-23T11:28:26;1.40;;;1.03;;
9076;SDS011;4574;51.072;17.174;2023-03-23T11:30:57;1.53;;;1.20;;
9076;SDS011;4574;51.072;17.174;2023-03-23T11:33:29;1.30;;;0.80;;
9076;SDS011;4574;51.072;17.174;2023-03-23T11:35:57;2.17;;;1.10;;
9076;SDS011;4574;51.072;17.174;2023-03-23T11:38:26;1.10;;;1.00;;
9076;SDS011;4574;51.072;17.174;2023-03-23T11:40:54;2.27;;;1.23;;
9076;SDS011;4574;51.072;17.174;2023-03-23T11:43:22;1.00;;;1.00;;
9076;SDS011;4574;51.072;17.174;2023-03-23T11:45:59;1.90;;;1.17;;
9076;SDS011;4574;51.072;17.174;2023-03-23T11:48:33;1.33;;;1.17;;
9076;SDS011;4574;51.072;17.174;2023-03-23T11:51:06;2.87;;;1.40;;
9076;SDS011;4574;51.072;17.174;2023-03-23T11:53:44;3.00;;;1.27;;
9076;SDS011;4574;51.072;17.174;2023-03-23T11:56:19;1.67;;;1.40;;
9076;SDS011;4574;51.072;17.174;2023-03-23T11:58:52;2.87;;;1.60;;
9076;SDS011;4574;51.072;17.174;2023-03-23T12:01:26;2.47;;;1.07;;
9076;SDS011;4574;51.072;17.174;2023-03-23T12:04:11;2.43;;;1.30;;
9076;SDS011;4574;51.072;17.174;2023-03-23T12:06:57;3.10;;;1.20;;
9076;SDS011;4574;51.072;17.174;2023-03-23T12:09:38;1.87;;;1.30;;
9076;SDS011;4574;51.072;17.174;2023-03-23T12:12:16;1.43;;;1.00;;
9076;SDS011;4574;51.072;17.174;2023-03-23T12:15:04;0.93;;;0.93;;
9076;SDS011;4574;51.072;17.174;2023-03-23T12:17:44;1.47;;;1.20;;
9076;SDS011;4574;51.072;17.174;2023-03-23T12:20:24;2.97;;;1.40;;
9076;SDS011;4574;51.072;17.174;2023-03-23T12:23:02;1.87;;;1.23;;
9076;SDS011;4574;51.072;17.174;2023-03-23T12:25:46;3.30;;;1.33;;
9076;SDS011;4574;51.072;17.174;2023-03-23T12:28:29;5.73;;;1.40;;
9076;SDS011;4574;51.072;17.174;2023-03-23T12:31:10;1.70;;;1.33;;
9076;SDS011;4574;51.072;17.174;2023-03-23T12:33:48;2.50;;;1.10;;
9076;SDS011;4574;51.072;17.174;2023-03-23T12:36:26;2.03;;;1.20;;
9076;SDS011;4574;51.072;17.174;2023-03-23T12:39:16;2.13;;;1.30;;
9076;SDS011;4574;51.072;17.174;2023-03-23T12:42:01;1.17;;;1.07;;
9076;SDS011;4574;51.072;17.174;2023-03-23T12:44:39;3.00;;;1.30;;
9076;SDS011;4574;51.072;17.174;2023-03-23T12:47:13;1.40;;;1.00;;
9076;SDS011;4574;51.072;17.174;2023-03-23T12:49:52;4.40;;;1.27;;
9076;SDS011;4574;51.072;17.174;2023-03-23T12:52:24;3.83;;;1.20;;
9076;SDS011;4574;51.072;17.174;2023-03-23T12:55:00;3.00;;;1.67;;
9076;SDS011;4574;51.072;17.174;2023-03-23T12:57:34;1.03;;;1.00;;
9076;SDS011;4574;51.072;17.174;2023-03-23T13:00:12;3.63;;;1.20;;
9076;SDS011;4574;51.072;17.174;2023-03-23T13:02:46;2.57;;;1.23;;
9076;SDS011;4574;51.072;17.174;2023-03-23T13:05:28;1.47;;;1.20;;
9076;SDS011;4574;51.072;17.174;2023-03-23T13:08:04;1.77;;;1.30;;
9076;SDS011;4574;51.072;17.174;2023-03-23T13:10:39;1.77;;;1.37;;
9076;SDS011;4574;51.072;17.174;2023-03-23T13:13:14;2.57;;;1.33;;
9076;SDS011;4574;51.072;17.174;2023-03-23T13:15:48;2.37;;;1.30;;
9076;SDS011;4574;51.072;17.174;2023-03-23T13:18:31;3.70;;;1.47;;
9076;SDS011;4574;51.072;17.174;2023-03-23T13:21:11;1.83;;;1.30;;
9076;SDS011;4574;51.072;17.174;2023-03-23T13:23:44;1.37;;;1.20;;
9076;SDS011;4574;51.072;17.174;2023-03-23T13:26:17;2.17;;;1.30;;
9076;SDS011;4574;51.072;17.174;2023-03-23T13:28:54;2.53;;;1.33;;
9076;SDS011;4574;51.072;17.174;2023-03-23T13:31:25;1.87;;;1.30;;
9076;SDS011;4574;51.072;17.174;2023-03-23T13:34:00;2.63;;;1.63;;
9076;SDS011;4574;51.072;17.174;2023-03-23T13:36:31;4.47;;;1.43;;
9076;SDS011;4574;51.072;17.174;2023-03-23T13:39:03;2.17;;;1.60;;
9076;SDS011;4574;51.072;17.174;2023-03-23T13:41:34;5.53;;;1.97;;
9076;SDS011;4574;51.072;17.174;2023-03-23T13:44:17;5.00;;;1.83;;
9076;SDS011;4574;51.072;17.174;2023-03-23T13:46:53;1.63;;;1.50;;
9076;SDS011;4574;51.072;17.174;2023-03-23T13:49:23;1.70;;;1.60;;
9076;SDS011;4574;51.072;17.174;2023-03-23T13:51:58;1.53;;;1.43;;
9076;SDS011;4574;51.072;17.174;2023-03-23T13:54:31;2.53;;;1.87;;
9076;SDS011;4574;51.072;17.174;2023-03-23T13:57:20;3.67;;;1.90;;
9076;SDS011;4574;51.072;17.174;2023-03-23T13:59:57;5.07;;;1.93;;
9076;SDS011;4574;51.072;17.174;2023-03-23T14:02:34;3.43;;;2.07;;
9076;SDS011;4574;51.072;17.174;2023-03-23T14:05:19;4.47;;;1.83;;
9076;SDS011;4574;51.072;17.174;2023-03-23T14:07:59;2.83;;;1.83;;
9076;SDS011;4574;51.072;17.174;2023-03-23T14:10:33;3.57;;;2.00;;
9076;SDS011;4574;51.072;17.174;2023-03-23T14:13:02;5.10;;;1.70;;
9076;SDS011;4574;51.072;17.174;2023-03-23T14:15:40;7.30;;;2.20;;
9076;SDS011;4574;51.072;17.174;2023-03-23T14:18:13;2.43;;;1.97;;
9076;SDS011;4574;51.072;17.174;2023-03-23T14:20:42;4.13;;;1.93;;
9076;SDS011;4574;51.072;17.174;2023-03-23T14:23:15;2.43;;;1.70;;
9076;SDS011;4574;51.072;17.174;2023-03-23T14:25:43;5.30;;;2.10;;
9076;SDS011;4574;51.072;17.174;2023-03-23T14:28:18;4.20;;;2.00;;
9076;SDS011;4574;51.072;17.174;2023-03-23T14:30:49;4.53;;;1.93;;
9076;SDS011;4574;51.072;17.174;2023-03-23T14:33:22;3.27;;;1.90;;
9076;SDS011;4574;51.072;17.174;2023-03-23T14:35:52;3.63;;;1.80;;
9076;SDS011;4574;51.072;17.174;2023-03-23T14:38:21;2.47;;;1.77;;
9076;SDS011;4574;51.072;17.174;2023-03-23T14:40:52;2.20;;;1.80;;
9076;SDS011;4574;51.072;17.174;2023-03-23T14:43:21;3.10;;;1.90;;
9076;SDS011;4574;51.072;17.174;2023-03-23T14:45:51;3.07;;;1.90;;
9076;SDS011;4574;51.072;17.174;2023-03-23T14:48:20;4.17;;;2.50;;
9076;SDS011;4574;51.072;17.174;2023-03-23T14:50:49;8.23;;;2.30;;
9076;SDS011;4574;51.072;17.174;2023-03-23T14:53:18;3.40;;;2.07;;
9076;SDS011;4574;51.072;17.174;2023-03-23T14:55:50;2.50;;;1.90;;
9076;SDS011;4574;51.072;17.174;2023-03-23T14:58:19;3.13;;;2.27;;
9076;SDS011;4574;51.072;17.174;2023-03-23T15:00:48;3.40;;;2.00;;
9076;SDS011;4574;51.072;17.174;2023-03-23T15:03:21;3.87;;;2.13;;
9076;SDS011;4574;51.072;17.174;2023-03-23T15:05:50;3.13;;;2.03;;
9076;SDS011;4574;51.072;17.174;2023-03-23T15:08:23;2.73;;;2.03;;
9076;SDS011;4574;51.072;17.174;2023-03-23T15:10:59;3.90;;;2.20;;
9076;SDS011;4574;51.072;17.174;2023-03-23T15:13:32;8.90;;;2.30;;
9076;SDS011;4574;51.072;17.174;2023-03-23T15:16:06;3.43;;;1.90;;
9076;SDS011;4574;51.072;17.174;2023-03-23T15:18:39;2.67;;;2.00;;
9076;SDS011;4574;51.072;17.174;2023-03-23T15:21:18;2.33;;;2.00;;
9076;SDS011;4574;51.072;17.174;2023-03-23T15:23:49;2.30;;;1.93;;
9076;SDS011;4574;51.072;17.174;2023-03-23T15:26:27;2.80;;;2.00;;
9076;SDS011;4574;51.072;17.174;2023-03-23T15:29:00;2.37;;;1.80;;
9076;SDS011;4574;51.072;17.174;2023-03-23T15:31:32;4.20;;;2.27;;